sensor_id;sensor_type;location;lat;lon;timestamp;P1;durP1;ratioP1;P2;durP2;ratioP2
47539;SDS011;33280;52.152;21.052;2022-08-04T00:04:48;13.90;;;10.63;;
47539;SDS011;33280;52.152;21.052;2022-08-04T00:10:10;11.23;;;9.13;;
47539;SDS011;33280;52.152;21.052;2022-08-04T00:12:42;11.43;;;9.10;;
47539;SDS011;33280;52.152;21.052;2022-08-04T00:15:14;14.60;;;9.63;;
47539;SDS011;33280;52.152;21.052;2022-08-04T00:17:53;14.53;;;9.50;;
47539;SDS011;33280;52.152;21.052;2022-08-04T00:20:28;12.20;;;9.53;;
47539;SDS011;33280;52.152;21.052;2022-08-04T00:22:57;11.13;;;9.10;;
47539;SDS011;33280;52.152;21.052;2022-08-04T00:25:26;11.63;;;9.43;;
47539;SDS011;33280;52.152;21.052;2022-08-04T00:27:53;14.53;;;9.60;;
47539;SDS011;33280;52.152;21.052;2022-08-04T00:30:21;12.10;;;9.47;;
47539;SDS011;33280;52.152;21.052;2022-08-04T00:32:48;10.97;;;9.43;;
47539;SDS011;33280;52.152;21.052;2022-08-04T00:35:16;12.67;;;9.17;;
47539;SDS011;33280;52.152;21.052;2022-08-04T00:37:44;13.90;;;9.37;;
47539;SDS011;33280;52.152;21.052;2022-08-04T00:40:27;11.53;;;9.13;;
47539;SDS011;33280;52.152;21.052;2022-08-04T00:52:20;15.30;;;9.23;;
47539;SDS011;33280;52.152;21.052;2022-08-04T01:00:32;24.00;;;10.47;;
47539;SDS011;33280;52.152;21.052;2022-08-04T01:05:56;12.53;;;9.20;;
47539;SDS011;33280;52.152;21.052;2022-08-04T01:17:19;15.27;;;9.13;;
47539;SDS011;33280;52.152;21.052;2022-08-04T01:19:58;11.07;;;8.63;;
47539;SDS011;33280;52.152;21.052;2022-08-04T01:30:35;11.70;;;9.00;;
47539;SDS011;33280;52.152;21.052;2022-08-04T01:33:13;11.27;;;8.87;;
47539;SDS011;33280;52.152;21.052;2022-08-04T01:35:45;13.93;;;8.50;;
47539;SDS011;33280;52.152;21.052;2022-08-04T01:40:59;15.53;;;9.47;;
47539;SDS011;33280;52.152;21.052;2022-08-04T01:43:32;13.57;;;9.20;;
47539;SDS011;33280;52.152;21.052;2022-08-04T01:46:02;17.60;;;9.03;;
47539;SDS011;33280;52.152;21.052;2022-08-04T01:48:30;15.20;;;9.67;;
47539;SDS011;33280;52.152;21.052;2022-08-04T01:51:02;12.43;;;8.80;;
47539;SDS011;33280;52.152;21.052;2022-08-04T01:53:32;12.30;;;8.73;;
47539;SDS011;33280;52.152;21.052;2022-08-04T01:56:04;11.03;;;8.70;;
47539;SDS011;33280;52.152;21.052;2022-08-04T01:58:33;11.80;;;9.07;;
47539;SDS011;33280;52.152;21.052;2022-08-04T02:01:09;11.47;;;8.97;;
47539;SDS011;33280;52.152;21.052;2022-08-04T02:03:38;11.73;;;8.23;;
47539;SDS011;33280;52.152;21.052;2022-08-04T02:06:30;10.30;;;7.90;;
47539;SDS011;33280;52.152;21.052;2022-08-04T02:09:11;15.47;;;9.00;;
47539;SDS011;33280;52.152;21.052;2022-08-04T02:11:48;15.20;;;9.27;;
47539;SDS011;33280;52.152;21.052;2022-08-04T02:14:28;16.53;;;9.00;;
47539;SDS011;33280;52.152;21.052;2022-08-04T02:17:08;11.53;;;8.50;;
47539;SDS011;33280;52.152;21.052;2022-08-04T02:22:34;14.90;;;8.73;;
47539;SDS011;33280;52.152;21.052;2022-08-04T02:25:13;10.53;;;8.17;;
47539;SDS011;33280;52.152;21.052;2022-08-04T02:28:06;11.77;;;8.67;;
47539;SDS011;33280;52.152;21.052;2022-08-04T02:33:37;13.57;;;8.37;;
47539;SDS011;33280;52.152;21.052;2022-08-04T02:36:20;12.37;;;8.07;;
47539;SDS011;33280;52.152;21.052;2022-08-04T02:38:59;9.73;;;7.67;;
47539;SDS011;33280;52.152;21.052;2022-08-04T02:41:29;10.43;;;7.53;;
47539;SDS011;33280;52.152;21.052;2022-08-04T02:43:58;11.37;;;7.63;;
47539;SDS011;33280;52.152;21.052;2022-08-04T02:46:27;10.60;;;7.67;;
47539;SDS011;33280;52.152;21.052;2022-08-04T02:48:56;10.40;;;7.53;;
47539;SDS011;33280;52.152;21.052;2022-08-04T02:51:25;9.60;;;7.53;;
47539;SDS011;33280;52.152;21.052;2022-08-04T02:53:55;11.80;;;8.00;;
47539;SDS011;33280;52.152;21.052;2022-08-04T02:56:24;10.63;;;7.87;;
47539;SDS011;33280;52.152;21.052;2022-08-04T02:58:57;9.47;;;7.03;;
47539;SDS011;33280;52.152;21.052;2022-08-04T03:01:25;9.50;;;7.63;;
47539;SDS011;33280;52.152;21.052;2022-08-04T03:07:13;8.57;;;7.67;;
47539;SDS011;33280;52.152;21.052;2022-08-04T03:13:36;11.00;;;7.53;;
47539;SDS011;33280;52.152;21.052;2022-08-04T03:22:18;10.90;;;8.03;;
47539;SDS011;33280;52.152;21.052;2022-08-04T03:31:46;25.20;;;9.47;;
47539;SDS011;33280;52.152;21.052;2022-08-04T03:39:48;10.43;;;7.20;;
47539;SDS011;33280;52.152;21.052;2022-08-04T03:54:08;8.20;;;7.03;;
47539;SDS011;33280;52.152;21.052;2022-08-04T04:00:14;9.67;;;7.53;;
47539;SDS011;33280;52.152;21.052;2022-08-04T04:08:51;10.47;;;8.13;;
47539;SDS011;33280;52.152;21.052;2022-08-04T04:17:25;15.80;;;9.13;;
47539;SDS011;33280;52.152;21.052;2022-08-04T04:20:10;12.10;;;8.50;;
47539;SDS011;33280;52.152;21.052;2022-08-04T04:31:32;13.33;;;10.40;;
47539;SDS011;33280;52.152;21.052;2022-08-04T04:34:33;16.50;;;10.80;;
47539;SDS011;33280;52.152;21.052;2022-08-04T04:46:05;14.17;;;10.37;;
47539;SDS011;33280;52.152;21.052;2022-08-04T04:54:41;14.90;;;10.20;;
47539;SDS011;33280;52.152;21.052;2022-08-04T04:57:20;16.50;;;10.27;;
47539;SDS011;33280;52.152;21.052;2022-08-04T05:00:08;17.60;;;10.00;;
47539;SDS011;33280;52.152;21.052;2022-08-04T05:11:39;19.43;;;9.63;;
47539;SDS011;33280;52.152;21.052;2022-08-04T05:14:32;15.50;;;8.90;;
47539;SDS011;33280;52.152;21.052;2022-08-04T05:17:11;14.00;;;9.90;;
47539;SDS011;33280;52.152;21.052;2022-08-04T05:22:34;13.67;;;8.47;;
47539;SDS011;33280;52.152;21.052;2022-08-04T05:25:52;11.07;;;8.87;;
47539;SDS011;33280;52.152;21.052;2022-08-04T05:30:46;11.77;;;7.93;;
47539;SDS011;33280;52.152;21.052;2022-08-04T05:33:20;14.43;;;8.27;;
47539;SDS011;33280;52.152;21.052;2022-08-04T05:35:57;16.40;;;9.20;;
47539;SDS011;33280;52.152;21.052;2022-08-04T05:38:48;11.10;;;8.50;;
47539;SDS011;33280;52.152;21.052;2022-08-04T05:41:19;12.67;;;8.77;;
47539;SDS011;33280;52.152;21.052;2022-08-04T05:43:47;13.87;;;8.37;;
47539;SDS011;33280;52.152;21.052;2022-08-04T05:46:15;15.17;;;8.43;;
47539;SDS011;33280;52.152;21.052;2022-08-04T05:48:44;11.87;;;8.40;;
47539;SDS011;33280;52.152;21.052;2022-08-04T05:51:11;13.60;;;8.23;;
47539;SDS011;33280;52.152;21.052;2022-08-04T05:53:41;11.37;;;7.47;;
47539;SDS011;33280;52.152;21.052;2022-08-04T05:56:11;14.33;;;7.87;;
47539;SDS011;33280;52.152;21.052;2022-08-04T05:58:39;17.63;;;8.47;;
47539;SDS011;33280;52.152;21.052;2022-08-04T06:01:07;14.23;;;7.20;;
47539;SDS011;33280;52.152;21.052;2022-08-04T06:03:36;14.27;;;7.10;;
47539;SDS011;33280;52.152;21.052;2022-08-04T06:06:05;15.00;;;8.10;;
47539;SDS011;33280;52.152;21.052;2022-08-04T06:08:34;11.83;;;6.70;;
47539;SDS011;33280;52.152;21.052;2022-08-04T06:11:02;9.97;;;6.63;;
47539;SDS011;33280;52.152;21.052;2022-08-04T06:13:43;14.70;;;7.60;;
47539;SDS011;33280;52.152;21.052;2022-08-04T06:16:17;9.60;;;6.43;;
47539;SDS011;33280;52.152;21.052;2022-08-04T06:18:54;10.57;;;6.77;;
47539;SDS011;33280;52.152;21.052;2022-08-04T06:21:55;9.77;;;6.83;;
47539;SDS011;33280;52.152;21.052;2022-08-04T06:24:25;19.47;;;7.43;;
47539;SDS011;33280;52.152;21.052;2022-08-04T06:26:55;9.70;;;6.10;;
47539;SDS011;33280;52.152;21.052;2022-08-04T06:29:23;7.80;;;5.97;;
47539;SDS011;33280;52.152;21.052;2022-08-04T06:32:11;8.37;;;6.00;;
47539;SDS011;33280;52.152;21.052;2022-08-04T06:35:07;10.77;;;5.63;;
47539;SDS011;33280;52.152;21.052;2022-08-04T06:37:35;8.27;;;5.70;;
47539;SDS011;33280;52.152;21.052;2022-08-04T06:40:09;10.80;;;5.80;;
47539;SDS011;33280;52.152;21.052;2022-08-04T06:42:59;7.00;;;5.10;;
47539;SDS011;33280;52.152;21.052;2022-08-04T06:45:27;7.80;;;5.03;;
47539;SDS011;33280;52.152;21.052;2022-08-04T06:47:55;11.50;;;4.80;;
47539;SDS011;33280;52.152;21.052;2022-08-04T06:50:23;7.83;;;4.80;;
47539;SDS011;33280;52.152;21.052;2022-08-04T06:53:11;10.70;;;4.50;;
47539;SDS011;33280;52.152;21.052;2022-08-04T06:55:39;7.10;;;5.00;;
47539;SDS011;33280;52.152;21.052;2022-08-04T06:58:08;6.67;;;4.37;;
47539;SDS011;33280;52.152;21.052;2022-08-04T07:00:39;5.22;;;4.50;;
47539;SDS011;33280;52.152;21.052;2022-08-04T07:03:15;7.57;;;4.28;;
47539;SDS011;33280;52.152;21.052;2022-08-04T07:05:45;6.43;;;4.50;;
47539;SDS011;33280;52.152;21.052;2022-08-04T07:08:13;6.60;;;4.27;;
47539;SDS011;33280;52.152;21.052;2022-08-04T07:10:41;6.47;;;4.10;;
47539;SDS011;33280;52.152;21.052;2022-08-04T07:13:09;7.17;;;4.17;;
47539;SDS011;33280;52.152;21.052;2022-08-04T07:15:37;10.18;;;4.20;;
47539;SDS011;33280;52.152;21.052;2022-08-04T07:18:08;12.52;;;4.22;;
47539;SDS011;33280;52.152;21.052;2022-08-04T07:20:44;6.17;;;4.40;;
47539;SDS011;33280;52.152;21.052;2022-08-04T07:23:12;6.10;;;4.10;;
47539;SDS011;33280;52.152;21.052;2022-08-04T07:25:48;10.10;;;4.68;;
47539;SDS011;33280;52.152;21.052;2022-08-04T07:28:55;8.80;;;4.40;;
47539;SDS011;33280;52.152;21.052;2022-08-04T07:31:30;6.68;;;4.10;;
47539;SDS011;33280;52.152;21.052;2022-08-04T07:34:00;6.00;;;4.13;;
47539;SDS011;33280;52.152;21.052;2022-08-04T07:36:50;6.47;;;4.47;;
47539;SDS011;33280;52.152;21.052;2022-08-04T07:39:22;9.32;;;4.55;;
47539;SDS011;33280;52.152;21.052;2022-08-04T07:41:55;7.30;;;4.97;;
47539;SDS011;33280;52.152;21.052;2022-08-04T07:44:23;8.88;;;5.00;;
47539;SDS011;33280;52.152;21.052;2022-08-04T07:46:51;6.57;;;4.43;;
47539;SDS011;33280;52.152;21.052;2022-08-04T07:49:18;5.95;;;4.28;;
47539;SDS011;33280;52.152;21.052;2022-08-04T07:52:08;6.68;;;4.30;;
47539;SDS011;33280;52.152;21.052;2022-08-04T07:54:38;7.55;;;4.22;;
47539;SDS011;33280;52.152;21.052;2022-08-04T07:57:07;5.78;;;3.92;;
47539;SDS011;33280;52.152;21.052;2022-08-04T08:33:13;3.45;;;3.00;;
47539;SDS011;33280;52.152;21.052;2022-08-04T09:38:48;4.72;;;2.90;;
47539;SDS011;33280;52.152;21.052;2022-08-04T09:47:19;3.47;;;3.03;;
47539;SDS011;33280;52.152;21.052;2022-08-04T09:53:02;3.10;;;2.80;;
47539;SDS011;33280;52.152;21.052;2022-08-04T10:01:16;15.05;;;3.85;;
47539;SDS011;33280;52.152;21.052;2022-08-04T10:03:50;8.32;;;3.78;;
47539;SDS011;33280;52.152;21.052;2022-08-04T10:13:04;4.40;;;3.00;;
47539;SDS011;33280;52.152;21.052;2022-08-04T10:29:50;4.30;;;3.25;;
47539;SDS011;33280;52.152;21.052;2022-08-04T10:32:33;8.05;;;3.53;;
47539;SDS011;33280;52.152;21.052;2022-08-04T10:35:18;6.70;;;3.42;;
47539;SDS011;33280;52.152;21.052;2022-08-04T10:40:57;6.10;;;3.60;;
47539;SDS011;33280;52.152;21.052;2022-08-04T10:43:37;5.40;;;3.75;;
47539;SDS011;33280;52.152;21.052;2022-08-04T10:46:13;10.65;;;3.78;;
47539;SDS011;33280;52.152;21.052;2022-08-04T10:57:33;4.45;;;3.60;;
47539;SDS011;33280;52.152;21.052;2022-08-04T11:00:08;5.32;;;3.80;;
47539;SDS011;33280;52.152;21.052;2022-08-04T11:02:51;6.30;;;3.42;;
47539;SDS011;33280;52.152;21.052;2022-08-04T11:08:04;5.90;;;3.38;;
47539;SDS011;33280;52.152;21.052;2022-08-04T11:10:46;4.45;;;3.30;;
47539;SDS011;33280;52.152;21.052;2022-08-04T11:13:43;4.45;;;3.53;;
47539;SDS011;33280;52.152;21.052;2022-08-04T11:16:20;3.75;;;3.08;;
47539;SDS011;33280;52.152;21.052;2022-08-04T11:21:25;5.32;;;3.30;;
47539;SDS011;33280;52.152;21.052;2022-08-04T11:26:50;3.78;;;3.47;;
47539;SDS011;33280;52.152;21.052;2022-08-04T11:35:31;12.75;;;3.90;;
47539;SDS011;33280;52.152;21.052;2022-08-04T11:40:59;4.28;;;3.33;;
47539;SDS011;33280;52.152;21.052;2022-08-04T11:43:43;11.23;;;3.85;;
47539;SDS011;33280;52.152;21.052;2022-08-04T11:46:36;4.43;;;3.38;;
47539;SDS011;33280;52.152;21.052;2022-08-04T11:52:23;6.88;;;3.13;;
47539;SDS011;33280;52.152;21.052;2022-08-04T11:54:53;5.07;;;3.00;;
47539;SDS011;33280;52.152;21.052;2022-08-04T11:57:21;9.45;;;3.60;;
47539;SDS011;33280;52.152;21.052;2022-08-04T12:00:03;8.93;;;3.35;;
47539;SDS011;33280;52.152;21.052;2022-08-04T12:05:30;5.07;;;3.10;;
47539;SDS011;33280;52.152;21.052;2022-08-04T12:14:00;5.25;;;3.42;;
47539;SDS011;33280;52.152;21.052;2022-08-04T12:17:03;3.47;;;3.10;;
47539;SDS011;33280;52.152;21.052;2022-08-04T12:19:39;7.85;;;3.72;;
47539;SDS011;33280;52.152;21.052;2022-08-04T12:22:34;6.68;;;3.40;;
47539;SDS011;33280;52.152;21.052;2022-08-04T12:25:11;7.68;;;3.60;;
47539;SDS011;33280;52.152;21.052;2022-08-04T12:30:17;4.22;;;3.08;;
47539;SDS011;33280;52.152;21.052;2022-08-04T12:33:18;5.30;;;3.13;;
47539;SDS011;33280;52.152;21.052;2022-08-04T12:36:16;6.07;;;3.30;;
47539;SDS011;33280;52.152;21.052;2022-08-04T12:38:58;5.00;;;3.33;;
47539;SDS011;33280;52.152;21.052;2022-08-04T12:41:34;3.17;;;2.60;;
47539;SDS011;33280;52.152;21.052;2022-08-04T12:44:05;7.03;;;2.70;;
47539;SDS011;33280;52.152;21.052;2022-08-04T12:46:55;5.65;;;3.08;;
47539;SDS011;33280;52.152;21.052;2022-08-04T12:49:44;3.20;;;2.90;;
47539;SDS011;33280;52.152;21.052;2022-08-04T12:52:26;7.00;;;2.90;;
47539;SDS011;33280;52.152;21.052;2022-08-04T12:55:14;3.08;;;2.78;;
47539;SDS011;33280;52.152;21.052;2022-08-04T12:57:52;3.35;;;2.88;;
47539;SDS011;33280;52.152;21.052;2022-08-04T13:00:22;3.28;;;2.90;;
47539;SDS011;33280;52.152;21.052;2022-08-04T13:05:23;3.05;;;2.75;;
47539;SDS011;33280;52.152;21.052;2022-08-04T13:08:01;7.70;;;3.08;;
47539;SDS011;33280;52.152;21.052;2022-08-04T13:10:37;2.90;;;2.60;;
47539;SDS011;33280;52.152;21.052;2022-08-04T13:13:10;3.08;;;2.80;;
47539;SDS011;33280;52.152;21.052;2022-08-04T13:15:41;4.97;;;2.90;;
47539;SDS011;33280;52.152;21.052;2022-08-04T13:18:26;6.13;;;3.03;;
47539;SDS011;33280;52.152;21.052;2022-08-04T13:21:30;5.03;;;2.78;;
47539;SDS011;33280;52.152;21.052;2022-08-04T13:30:34;4.72;;;2.70;;
47539;SDS011;33280;52.152;21.052;2022-08-04T13:36:08;3.22;;;2.63;;
47539;SDS011;33280;52.152;21.052;2022-08-04T13:38:57;7.35;;;2.90;;
47539;SDS011;33280;52.152;21.052;2022-08-04T13:41:28;4.35;;;3.22;;
47539;SDS011;33280;52.152;21.052;2022-08-04T13:43:57;3.83;;;2.85;;
47539;SDS011;33280;52.152;21.052;2022-08-04T13:47:02;5.65;;;2.80;;
47539;SDS011;33280;52.152;21.052;2022-08-04T13:49:37;6.47;;;3.00;;
47539;SDS011;33280;52.152;21.052;2022-08-04T13:52:24;2.83;;;2.60;;
47539;SDS011;33280;52.152;21.052;2022-08-04T13:54:52;4.28;;;2.60;;
47539;SDS011;33280;52.152;21.052;2022-08-04T13:57:22;3.40;;;2.78;;
47539;SDS011;33280;52.152;21.052;2022-08-04T14:00:04;3.25;;;2.45;;
47539;SDS011;33280;52.152;21.052;2022-08-04T14:05:25;2.90;;;2.60;;
47539;SDS011;33280;52.152;21.052;2022-08-04T14:08:27;5.68;;;2.78;;
47539;SDS011;33280;52.152;21.052;2022-08-04T14:11:00;3.65;;;2.60;;
47539;SDS011;33280;52.152;21.052;2022-08-04T14:13:36;4.85;;;2.70;;
47539;SDS011;33280;52.152;21.052;2022-08-04T14:16:18;7.93;;;3.20;;
47539;SDS011;33280;52.152;21.052;2022-08-04T14:18:47;3.17;;;2.40;;
47539;SDS011;33280;52.152;21.052;2022-08-04T14:21:23;2.35;;;2.15;;
47539;SDS011;33280;52.152;21.052;2022-08-04T14:23:51;3.92;;;2.70;;
47539;SDS011;33280;52.152;21.052;2022-08-04T14:26:21;2.58;;;2.33;;
47539;SDS011;33280;52.152;21.052;2022-08-04T14:29:12;4.60;;;2.20;;
47539;SDS011;33280;52.152;21.052;2022-08-04T14:32:03;3.20;;;2.50;;
47539;SDS011;33280;52.152;21.052;2022-08-04T14:34:50;5.13;;;2.70;;
47539;SDS011;33280;52.152;21.052;2022-08-04T14:37:20;10.38;;;2.97;;
47539;SDS011;33280;52.152;21.052;2022-08-04T14:39:53;2.50;;;2.13;;
47539;SDS011;33280;52.152;21.052;2022-08-04T14:42:40;3.03;;;2.40;;
47539;SDS011;33280;52.152;21.052;2022-08-04T14:45:08;9.57;;;3.30;;
47539;SDS011;33280;52.152;21.052;2022-08-04T14:47:43;5.30;;;2.70;;
47539;SDS011;33280;52.152;21.052;2022-08-04T14:50:19;2.40;;;2.20;;
47539;SDS011;33280;52.152;21.052;2022-08-04T14:52:46;12.60;;;3.15;;
47539;SDS011;33280;52.152;21.052;2022-08-04T14:55:17;6.20;;;2.90;;
47539;SDS011;33280;52.152;21.052;2022-08-04T14:57:49;4.60;;;2.50;;
47539;SDS011;33280;52.152;21.052;2022-08-04T15:00:37;4.25;;;2.60;;
47539;SDS011;33280;52.152;21.052;2022-08-04T15:03:07;3.15;;;2.30;;
47539;SDS011;33280;52.152;21.052;2022-08-04T15:05:36;3.63;;;2.40;;
47539;SDS011;33280;52.152;21.052;2022-08-04T15:08:25;3.20;;;2.90;;
47539;SDS011;33280;52.152;21.052;2022-08-04T15:10:57;4.18;;;2.53;;
47539;SDS011;33280;52.152;21.052;2022-08-04T15:13:30;2.60;;;2.40;;
47539;SDS011;33280;52.152;21.052;2022-08-04T15:15:58;2.80;;;2.50;;
47539;SDS011;33280;52.152;21.052;2022-08-04T15:18:35;7.45;;;2.72;;
47539;SDS011;33280;52.152;21.052;2022-08-04T15:21:04;4.03;;;2.53;;
47539;SDS011;33280;52.152;21.052;2022-08-04T15:23:32;5.60;;;2.58;;
47539;SDS011;33280;52.152;21.052;2022-08-04T15:26:06;4.88;;;2.70;;
47539;SDS011;33280;52.152;21.052;2022-08-04T15:28:38;5.30;;;2.53;;
47539;SDS011;33280;52.152;21.052;2022-08-04T15:31:07;4.57;;;2.78;;
47539;SDS011;33280;52.152;21.052;2022-08-04T15:33:58;5.05;;;2.83;;
47539;SDS011;33280;52.152;21.052;2022-08-04T15:36:35;2.40;;;2.20;;
47539;SDS011;33280;52.152;21.052;2022-08-04T15:48:28;3.75;;;2.55;;
47539;SDS011;33280;52.152;21.052;2022-08-04T15:53:24;9.88;;;2.80;;
47539;SDS011;33280;52.152;21.052;2022-08-04T15:58:55;2.67;;;2.47;;
47539;SDS011;33280;52.152;21.052;2022-08-04T16:01:22;3.05;;;2.20;;
47539;SDS011;33280;52.152;21.052;2022-08-04T16:03:51;4.20;;;2.45;;
47539;SDS011;33280;52.152;21.052;2022-08-04T16:09:02;2.65;;;2.40;;
47539;SDS011;33280;52.152;21.052;2022-08-04T16:14:08;2.63;;;2.42;;
47539;SDS011;33280;52.152;21.052;2022-08-04T16:19:07;3.00;;;2.60;;
47539;SDS011;33280;52.152;21.052;2022-08-04T16:21:46;6.18;;;2.92;;
47539;SDS011;33280;52.152;21.052;2022-08-04T16:24:18;6.47;;;2.80;;
47539;SDS011;33280;52.152;21.052;2022-08-04T16:26:55;2.95;;;2.58;;
47539;SDS011;33280;52.152;21.052;2022-08-04T16:29:33;5.65;;;2.83;;
47539;SDS011;33280;52.152;21.052;2022-08-04T16:34:31;3.85;;;2.92;;
47539;SDS011;33280;52.152;21.052;2022-08-04T16:43:04;4.13;;;3.17;;
47539;SDS011;33280;52.152;21.052;2022-08-04T16:45:42;3.15;;;2.85;;
47539;SDS011;33280;52.152;21.052;2022-08-04T16:48:11;4.43;;;2.90;;
47539;SDS011;33280;52.152;21.052;2022-08-04T16:53:55;3.78;;;3.38;;
47539;SDS011;33280;52.152;21.052;2022-08-04T16:56:30;4.95;;;3.28;;
47539;SDS011;33280;52.152;21.052;2022-08-04T16:59:10;5.60;;;3.03;;
47539;SDS011;33280;52.152;21.052;2022-08-04T17:01:43;4.28;;;2.90;;
47539;SDS011;33280;52.152;21.052;2022-08-04T17:04:16;5.82;;;3.20;;
47539;SDS011;33280;52.152;21.052;2022-08-04T17:06:43;7.88;;;3.15;;
47539;SDS011;33280;52.152;21.052;2022-08-04T17:09:15;5.57;;;2.85;;
47539;SDS011;33280;52.152;21.052;2022-08-04T17:11:44;3.50;;;3.20;;
47539;SDS011;33280;52.152;21.052;2022-08-04T17:14:13;4.45;;;3.03;;
47539;SDS011;33280;52.152;21.052;2022-08-04T17:16:52;3.60;;;3.15;;
47539;SDS011;33280;52.152;21.052;2022-08-04T17:19:24;5.00;;;3.20;;
47539;SDS011;33280;52.152;21.052;2022-08-04T17:21:56;4.40;;;3.20;;
47539;SDS011;33280;52.152;21.052;2022-08-04T17:24:35;5.65;;;3.28;;
47539;SDS011;33280;52.152;21.052;2022-08-04T17:27:04;3.90;;;3.30;;
47539;SDS011;33280;52.152;21.052;2022-08-04T17:29:52;5.15;;;3.20;;
47539;SDS011;33280;52.152;21.052;2022-08-04T17:32:19;4.60;;;3.53;;
47539;SDS011;33280;52.152;21.052;2022-08-04T17:34:55;5.47;;;2.90;;
47539;SDS011;33280;52.152;21.052;2022-08-04T17:37:25;3.85;;;3.17;;
47539;SDS011;33280;52.152;21.052;2022-08-04T17:40:10;4.97;;;3.38;;
47539;SDS011;33280;52.152;21.052;2022-08-04T17:51:57;3.80;;;3.42;;
47539;SDS011;33280;52.152;21.052;2022-08-04T17:54:36;5.75;;;3.17;;
47539;SDS011;33280;52.152;21.052;2022-08-04T17:57:39;8.90;;;3.40;;
47539;SDS011;33280;52.152;21.052;2022-08-04T17:59:58;5.15;;;3.65;;
47539;SDS011;33280;52.152;21.052;2022-08-04T18:02:27;6.53;;;3.47;;
47539;SDS011;33280;52.152;21.052;2022-08-04T18:04:59;6.25;;;3.50;;
47539;SDS011;33280;52.152;21.052;2022-08-04T18:07:38;5.43;;;3.50;;
47539;SDS011;33280;52.152;21.052;2022-08-04T18:10:39;6.22;;;3.40;;
47539;SDS011;33280;52.152;21.052;2022-08-04T18:13:21;4.85;;;3.47;;
47539;SDS011;33280;52.152;21.052;2022-08-04T18:15:58;6.13;;;3.53;;
47539;SDS011;33280;52.152;21.052;2022-08-04T18:18:30;3.85;;;3.30;;
47539;SDS011;33280;52.152;21.052;2022-08-04T18:20:57;13.48;;;3.60;;
47539;SDS011;33280;52.152;21.052;2022-08-04T18:23:30;4.65;;;3.17;;
47539;SDS011;33280;52.152;21.052;2022-08-04T18:25:59;4.43;;;3.20;;
47539;SDS011;33280;52.152;21.052;2022-08-04T18:28:29;3.63;;;2.88;;
47539;SDS011;33280;52.152;21.052;2022-08-04T18:30:59;4.43;;;2.90;;
47539;SDS011;33280;52.152;21.052;2022-08-04T18:33:27;5.35;;;2.75;;
47539;SDS011;33280;52.152;21.052;2022-08-04T18:36:10;6.68;;;3.42;;
47539;SDS011;33280;52.152;21.052;2022-08-04T18:39:01;9.98;;;3.42;;
47539;SDS011;33280;52.152;21.052;2022-08-04T18:41:40;8.40;;;3.28;;
47539;SDS011;33280;52.152;21.052;2022-08-04T18:44:31;13.65;;;3.25;;
47539;SDS011;33280;52.152;21.052;2022-08-04T18:47:18;7.20;;;3.03;;
47539;SDS011;33280;52.152;21.052;2022-08-04T18:49:55;5.35;;;3.45;;
47539;SDS011;33280;52.152;21.052;2022-08-04T18:52:41;5.22;;;2.90;;
47539;SDS011;33280;52.152;21.052;2022-08-04T18:55:11;6.30;;;3.65;;
47539;SDS011;33280;52.152;21.052;2022-08-04T18:57:59;6.88;;;3.55;;
47539;SDS011;33280;52.152;21.052;2022-08-04T19:00:38;7.30;;;3.13;;
47539;SDS011;33280;52.152;21.052;2022-08-04T19:03:11;9.95;;;3.70;;
47539;SDS011;33280;52.152;21.052;2022-08-04T19:05:41;6.40;;;3.25;;
47539;SDS011;33280;52.152;21.052;2022-08-04T19:08:13;4.53;;;3.38;;
47539;SDS011;33280;52.152;21.052;2022-08-04T19:11:00;6.55;;;3.53;;
47539;SDS011;33280;52.152;21.052;2022-08-04T19:13:49;7.28;;;4.22;;
47539;SDS011;33280;52.152;21.052;2022-08-04T19:16:23;8.13;;;4.45;;
47539;SDS011;33280;52.152;21.052;2022-08-04T19:18:52;7.82;;;4.28;;
47539;SDS011;33280;52.152;21.052;2022-08-04T19:21:20;6.28;;;4.18;;
47539;SDS011;33280;52.152;21.052;2022-08-04T19:24:08;5.68;;;4.20;;
47539;SDS011;33280;52.152;21.052;2022-08-04T19:26:55;9.32;;;5.00;;
47539;SDS011;33280;52.152;21.052;2022-08-04T19:29:21;5.85;;;4.63;;
47539;SDS011;33280;52.152;21.052;2022-08-04T19:32:02;7.82;;;4.95;;
47539;SDS011;33280;52.152;21.052;2022-08-04T19:34:40;7.63;;;4.47;;
47539;SDS011;33280;52.152;21.052;2022-08-04T19:37:16;9.07;;;4.75;;
47539;SDS011;33280;52.152;21.052;2022-08-04T19:40:04;6.15;;;4.53;;
47539;SDS011;33280;52.152;21.052;2022-08-04T19:42:34;9.88;;;4.70;;
47539;SDS011;33280;52.152;21.052;2022-08-04T19:45:02;7.72;;;4.50;;
47539;SDS011;33280;52.152;21.052;2022-08-04T19:47:30;23.00;;;6.05;;
47539;SDS011;33280;52.152;21.052;2022-08-04T19:50:18;5.68;;;4.50;;
47539;SDS011;33280;52.152;21.052;2022-08-04T19:52:48;7.72;;;4.60;;
47539;SDS011;33280;52.152;21.052;2022-08-04T19:55:18;9.10;;;4.55;;
47539;SDS011;33280;52.152;21.052;2022-08-04T19:58:03;5.88;;;4.20;;
47539;SDS011;33280;52.152;21.052;2022-08-04T20:00:33;6.57;;;4.47;;
47539;SDS011;33280;52.152;21.052;2022-08-04T20:03:02;10.20;;;5.40;;
47539;SDS011;33280;52.152;21.052;2022-08-04T20:05:37;8.30;;;4.60;;
47539;SDS011;33280;52.152;21.052;2022-08-04T20:08:19;6.10;;;4.47;;
47539;SDS011;33280;52.152;21.052;2022-08-04T20:10:48;6.17;;;4.97;;
47539;SDS011;33280;52.152;21.052;2022-08-04T20:13:18;11.10;;;4.95;;
47539;SDS011;33280;52.152;21.052;2022-08-04T20:15:46;7.10;;;4.40;;
47539;SDS011;33280;52.152;21.052;2022-08-04T20:18:24;8.20;;;4.65;;
47539;SDS011;33280;52.152;21.052;2022-08-04T20:21:11;7.50;;;4.93;;
47539;SDS011;33280;52.152;21.052;2022-08-04T20:23:59;9.52;;;4.88;;
47539;SDS011;33280;52.152;21.052;2022-08-04T20:26:46;6.97;;;4.50;;
47539;SDS011;33280;52.152;21.052;2022-08-04T20:29:14;7.80;;;4.60;;
47539;SDS011;33280;52.152;21.052;2022-08-04T20:32:01;8.70;;;5.10;;
47539;SDS011;33280;52.152;21.052;2022-08-04T20:34:34;5.53;;;4.50;;
47539;SDS011;33280;52.152;21.052;2022-08-04T20:37:02;7.47;;;4.33;;
47539;SDS011;33280;52.152;21.052;2022-08-04T20:39:29;7.97;;;4.27;;
47539;SDS011;33280;52.152;21.052;2022-08-04T20:41:56;8.97;;;4.83;;
47539;SDS011;33280;52.152;21.052;2022-08-04T20:44:24;5.15;;;4.30;;
47539;SDS011;33280;52.152;21.052;2022-08-04T20:46:51;5.90;;;4.67;;
47539;SDS011;33280;52.152;21.052;2022-08-04T20:49:18;6.60;;;4.80;;
47539;SDS011;33280;52.152;21.052;2022-08-04T20:51:47;10.43;;;4.50;;
47539;SDS011;33280;52.152;21.052;2022-08-04T20:54:15;8.07;;;4.60;;
47539;SDS011;33280;52.152;21.052;2022-08-04T20:56:52;10.23;;;4.53;;
47539;SDS011;33280;52.152;21.052;2022-08-04T20:59:19;8.55;;;5.03;;
47539;SDS011;33280;52.152;21.052;2022-08-04T21:01:49;6.03;;;4.47;;
47539;SDS011;33280;52.152;21.052;2022-08-04T21:04:19;7.82;;;4.93;;
47539;SDS011;33280;52.152;21.052;2022-08-04T21:06:58;6.50;;;5.00;;
47539;SDS011;33280;52.152;21.052;2022-08-04T21:09:27;6.23;;;4.80;;
47539;SDS011;33280;52.152;21.052;2022-08-04T21:12:14;9.85;;;5.00;;
47539;SDS011;33280;52.152;21.052;2022-08-04T21:14:54;11.10;;;5.17;;
47539;SDS011;33280;52.152;21.052;2022-08-04T21:17:39;9.37;;;5.37;;
47539;SDS011;33280;52.152;21.052;2022-08-04T21:20:26;8.00;;;5.37;;
47539;SDS011;33280;52.152;21.052;2022-08-04T21:22:54;9.03;;;5.00;;
47539;SDS011;33280;52.152;21.052;2022-08-04T21:25:32;8.90;;;5.30;;
47539;SDS011;33280;52.152;21.052;2022-08-04T21:28:08;6.60;;;5.10;;
47539;SDS011;33280;52.152;21.052;2022-08-04T21:30:36;8.93;;;5.03;;
47539;SDS011;33280;52.152;21.052;2022-08-04T21:33:21;10.17;;;5.40;;
47539;SDS011;33280;52.152;21.052;2022-08-04T21:36:09;7.55;;;5.20;;